Buckley, Michigan
Current Conditions -  °F | °C
As of 1:27 PM on Friday 28 Nov 2014 (Local Time) from KTVC Reporting Station
Light Snow Light Snow  
Wind Chill: 19°   Ceiling: 3500
Heat Index: 25°   Visibility: 5mi
Dew Point: 16°   Wind: 5mph
Humidity: 69%   Direction: 190°S
Pressure: 30.13"   Gusts: NA
Location:  44.5°N, 85.68°W
Report Text: KTVC 281827Z 19004KT 5SM -SN FEW023 BKN035 OVC048 M04/M09 A3013 RMK AO2 SNB02 P0000 T10391089
Loading
Personal Weather Stations






























Interactive Weather Map New forecast layout! Learn more

10-Day Weather Forecast

Advertisements
Track Severe Weather on mobile